»·PEaware :: N445SN KBFL-KMHV

N445SN :: KBFL-KMHV

FLIGHT INFORMATION

Flight Status: Arrived
Operator: Privately registered:
United States
More flights under this callsign
Pilot: Jeremy W. (20490)
Aircraft: CESSNA 152 AEROBAT
(C152)
More flights by this aircraft type
Origin: KBFL Meadows
United States
Destination: KMHV Mojave
United States
More flights between these airports :: More routes between these airports
Route:
File this flight plan on PilotEdge
Remarks: CAT-06 Rating
Altitude:
(Current/Filed)
7,500ft
Speed:
(Current/Filed)
107kts
Departed: 21-Sep-18 07:48 AM
Arrived: 21-Sep-18 08:24 AM
Distance/Time
Traveled:
49nm/0:36
Distance/Time
To Go:
Arrived

Flight Plot

Page will automatically refresh every two minutes.


Map Options




Map Legend


Flown Route
Filed Route
Departure Airport
Arrival Airport
Navaid (VOR, NDB)
Fix

Horizontal Profiles

Position Reports

Time Latitude Longitude Heading Altitude Ground
Speed
21-Sep-18 07:29 35.435702 -119.052044 180 503ft 0kts
21-Sep-18 07:30 35.435702 -119.052044 180 503ft 0kts
21-Sep-18 07:31 35.435702 -119.052043 179 503ft 0kts
21-Sep-18 07:32 35.435702 -119.052044 179 503ft 0kts
21-Sep-18 07:33 35.435702 -119.052044 179 503ft 0kts
21-Sep-18 07:34 35.435702 -119.052044 179 503ft 0kts
21-Sep-18 07:35 35.435702 -119.052044 179 503ft 0kts
21-Sep-18 07:36 35.435702 -119.052044 179 503ft 0kts
21-Sep-18 07:37 35.435702 -119.052044 179 503ft 0kts
21-Sep-18 07:38 35.435702 -119.052044 179 503ft 0kts
21-Sep-18 07:39 35.435702 -119.052043 180 503ft 0kts
21-Sep-18 07:40 35.435702 -119.052043 180 503ft 0kts
21-Sep-18 07:41 35.435429 -119.053242 253 499ft 5kts
21-Sep-18 07:42 35.435360 -119.053457 244 499ft 0kts
21-Sep-18 07:43 35.435056 -119.053919 225 496ft 9kts
21-Sep-18 07:44 35.432616 -119.052500 134 492ft 9kts
21-Sep-18 07:45 35.430842 -119.050332 134 491ft 11kts
21-Sep-18 07:46 35.428333 -119.047319 133 487ft 13kts
21-Sep-18 07:47 35.425808 -119.044650 215 479ft 10kts
21-Sep-18 07:48 35.425761 -119.044708 233 479ft 0kts
21-Sep-18 07:49 35.425694 -119.044804 223 478ft 6kts
21-Sep-18 07:50 35.432629 -119.054864 312 599ft 82kts
21-Sep-18 07:51 35.449454 -119.067285 36 1376ft 73kts
21-Sep-18 07:52 35.441862 -119.045844 126 1739ft 88kts
21-Sep-18 07:53 35.431833 -119.019988 117 2259ft 83kts
21-Sep-18 07:54 35.422181 -118.997291 116 2974ft 71kts
21-Sep-18 07:55 35.412963 -118.975556 117 3542ft 74kts
21-Sep-18 07:56 35.402996 -118.952077 116 4067ft 76kts
21-Sep-18 07:57 35.394272 -118.930871 111 4662ft 71kts
21-Sep-18 07:58 35.384335 -118.907740 117 5099ft 82kts
21-Sep-18 07:59 35.373177 -118.881753 117 5547ft 85kts
21-Sep-18 08:00 35.362962 -118.857867 117 6085ft 75kts
21-Sep-18 08:01 35.353258 -118.835035 116 6517ft 77kts
21-Sep-18 08:02 35.343129 -118.811227 116 6914ft 79kts
21-Sep-18 08:03 35.332946 -118.787342 119 7309ft 79kts
21-Sep-18 08:04 35.322849 -118.763649 117 7705ft 77kts
21-Sep-18 08:05 35.310680 -118.735175 117 7641ft 102kts
21-Sep-18 08:06 35.297401 -118.704118 115 7530ft 99kts
21-Sep-18 08:07 35.284778 -118.674609 117 7513ft 96kts
21-Sep-18 08:08 35.271983 -118.644748 115 7507ft 101kts
21-Sep-18 08:09 35.258892 -118.614200 117 7508ft 101kts
21-Sep-18 08:10 35.245733 -118.583483 117 7509ft 102kts
21-Sep-18 08:11 35.232522 -118.552670 117 7508ft 102kts
21-Sep-18 08:12 35.219328 -118.521950 117 7508ft 102kts
21-Sep-18 08:13 35.206126 -118.491241 116 7506ft 102kts
21-Sep-18 08:14 35.192905 -118.460475 116 7507ft 102kts
21-Sep-18 08:15 35.179825 -118.430093 115 7504ft 100kts
21-Sep-18 08:16 35.167299 -118.401021 115 7568ft 93kts
21-Sep-18 08:17 35.154221 -118.370646 117 7491ft 103kts
21-Sep-18 08:18 35.141185 -118.340465 117 7479ft 103kts
21-Sep-18 08:19 35.126627 -118.306796 117 6980ft 108kts
21-Sep-18 08:20 35.113061 -118.275436 117 6477ft 102kts
21-Sep-18 08:21 35.099652 -118.244438 117 5634ft 104kts
21-Sep-18 08:22 35.084585 -118.213220 120 4323ft 109kts
21-Sep-18 08:23 35.072003 -118.181078 107 3585ft 105kts
21-Sep-18 08:24 35.069948 -118.146949 85 3513ft 101kts
21-Sep-18 08:25 35.059605 -118.133427 253 2979ft 80kts
21-Sep-18 08:26 35.059165 -118.151281 266 2752ft 23kts
21-Sep-18 08:27 35.058374 -118.157775 180 2764ft 0kts
21-Sep-18 08:28 35.057720 -118.157953 234 2763ft 10kts
21-Sep-18 08:29 35.057136 -118.158009 273 2762ft 0kts
21-Sep-18 08:30 35.057136 -118.158009 273 2762ft 0kts
21-Sep-18 08:31 35.057136 -118.158009 273 2762ft 0kts
21-Sep-18 08:32 35.057136 -118.158009 273 2762ft 0kts
21-Sep-18 08:33 35.057136 -118.158009 273 2762ft 0kts
21-Sep-18 08:34 35.057136 -118.158009 273 2762ft 0kts

Navigation Log

Ident Type
Flight plan parsing failed, navigation log unavailable